Time;durP1;ratioP1;P1;durP2;ratioP2;P2;SDS_P1;SDS_P2;PMS_P1;PMS_P2;Temp;Humidity;BMP_temperature;BMP_pressure;BME280_temperature;BME280_humidity;BME280_pressure;Samples;Min_cycle;Max_cycle;Signal;HPM_P1;HPM_P2
2023/10/03 00:00:24;;;;;;;27.95;13.57;;;19.40;94.30;;;;;;4987745;28;20050;-79
2023/10/03 00:02:55;;;;;;;32.90;13.55;;;19.40;94.20;;;;;;4959139;28;20053;-79
2023/10/03 00:05:42;;;;;;;26.17;12.32;;;19.40;94.60;;;;;;4967905;28;20518;-79
2023/10/03 00:08:08;;;;;;;24.98;11.35;;;19.40;94.30;;;;;;4973101;28;20097;-80
2023/10/03 00:10:35;;;;;;;28.15;12.70;;;19.40;94.50;;;;;;4966976;28;20042;-80
2023/10/03 00:13:01;;;;;;;26.40;12.80;;;19.40;94.50;;;;;;4970125;28;20058;-80
2023/10/03 00:15:30;;;;;;;26.58;12.18;;;19.30;94.80;;;;;;4970273;28;20077;-78
2023/10/03 00:17:55;;;;;;;35.42;14.10;;;19.40;94.60;;;;;;4987258;28;20030;-78
2023/10/03 00:20:22;;;;;;;34.72;13.52;;;19.30;94.90;;;;;;4973994;28;20474;-79
2023/10/03 00:22:48;;;;;;;24.90;11.75;;;19.30;94.80;;;;;;4954518;28;20069;-78
2023/10/03 00:25:18;;;;;;;25.02;11.73;;;19.40;94.60;;;;;;4983744;28;20310;-79
2023/10/03 00:27:46;;;;;;;30.42;14.30;;;19.40;94.70;;;;;;4985726;28;20048;-80
2023/10/03 00:30:14;;;;;;;27.80;13.55;;;19.40;94.90;;;;;;4987260;28;20045;-80
2023/10/03 00:32:41;;;;;;;29.15;14.27;;;19.20;94.70;;;;;;4983734;28;20030;-80
2023/10/03 00:35:08;;;;;;;27.50;11.43;;;19.30;95.00;;;;;;4972005;28;20607;-80
2023/10/03 00:37:34;;;;;;;26.35;12.90;;;19.40;94.80;;;;;;4984092;28;20039;-79
2023/10/03 00:40:00;;;;;;;27.23;12.82;;;19.40;94.80;;;;;;4984497;28;20038;-79
2023/10/03 00:42:26;;;;;;;27.83;12.90;;;19.30;94.80;;;;;;4952458;28;20104;-80
2023/10/03 00:44:52;;;;;;;27.10;10.90;;;19.40;95.00;;;;;;4987094;28;20113;-79
2023/10/03 00:47:18;;;;;;;28.63;11.77;;;19.40;94.80;;;;;;4986626;28;20387;-80
2023/10/03 00:49:43;;;;;;;29.98;12.50;;;19.40;94.80;;;;;;4971637;28;20037;-79
2023/10/03 00:52:09;;;;;;;24.15;10.98;;;19.50;94.90;;;;;;4983375;28;20034;-80
2023/10/03 00:54:36;;;;;;;26.20;11.63;;;19.50;94.90;;;;;;4971738;28;20038;-79
2023/10/03 00:57:02;;;;;;;29.60;11.90;;;19.50;94.90;;;;;;4984625;28;20113;-80
2023/10/03 00:59:28;;;;;;;26.90;12.73;;;19.50;94.70;;;;;;4985983;28;20137;-80
2023/10/03 01:02:01;;;;;;;36.40;14.80;;;19.60;94.90;;;;;;4949306;28;20049;-80
2023/10/03 01:04:30;;;;;;;30.77;13.40;;;19.60;95.00;;;;;;4984682;28;20061;-80
2023/10/03 01:06:56;;;;;;;26.92;12.43;;;19.60;94.80;;;;;;4967474;28;20035;-80
2023/10/03 01:09:27;;;;;;;31.17;13.77;;;19.50;94.80;;;;;;4968725;28;20038;-80
2023/10/03 01:11:53;;;;;;;25.70;11.65;;;19.70;94.90;;;;;;4984785;28;20505;-80
2023/10/03 01:14:19;;;;;;;28.92;13.10;;;19.60;94.80;;;;;;4970972;28;20034;-80
2023/10/03 01:16:45;;;;;;;30.25;13.48;;;19.70;94.80;;;;;;4970630;28;20110;-79
2023/10/03 01:19:13;;;;;;;23.30;11.40;;;19.70;94.80;;;;;;4970656;28;20034;-80
2023/10/03 01:21:41;;;;;;;32.83;13.98;;;19.70;94.80;;;;;;4970636;28;20042;-80
2023/10/03 01:24:13;;;;;;;27.98;11.85;;;19.70;94.70;;;;;;4985312;28;20030;-80
2023/10/03 01:26:39;;;;;;;32.50;13.35;;;19.70;94.70;;;;;;4985465;28;20038;-80
2023/10/03 01:29:05;;;;;;;29.70;12.93;;;19.70;94.80;;;;;;4969990;28;20022;-79
2023/10/03 01:31:31;;;;;;;29.70;12.25;;;19.70;95.10;;;;;;4969358;28;20041;-80
2023/10/03 01:33:56;;;;;;;26.88;12.10;;;19.70;94.80;;;;;;4951979;28;20034;-80
2023/10/03 01:36:22;;;;;;;26.65;12.27;;;19.70;94.70;;;;;;4984212;28;20037;-80
2023/10/03 01:38:47;;;;;;;33.80;14.38;;;19.80;94.80;;;;;;4982689;28;20088;-80
2023/10/03 01:41:13;;;;;;;25.40;11.95;;;19.70;94.80;;;;;;4979284;28;20181;-79
2023/10/03 01:43:44;;;;;;;28.25;12.55;;;19.70;94.80;;;;;;4982936;28;20037;-79
2023/10/03 01:46:11;;;;;;;25.35;12.45;;;19.70;94.90;;;;;;4986217;28;20038;-80
2023/10/03 01:48:37;;;;;;;26.42;11.90;;;19.70;94.80;;;;;;4968724;28;20038;-79
2023/10/03 01:51:03;;;;;;;25.90;11.52;;;19.70;94.80;;;;;;4953899;28;20046;-80
2023/10/03 01:53:29;;;;;;;29.30;12.40;;;19.70;94.80;;;;;;4969179;28;20037;-80
2023/10/03 01:55:56;;;;;;;24.48;10.05;;;19.70;94.80;;;;;;4982410;28;20037;-80
2023/10/03 01:58:24;;;;;;;24.15;10.93;;;19.70;94.70;;;;;;4968413;28;20037;-79
2023/10/03 02:00:50;;;;;;;24.15;11.52;;;19.80;94.80;;;;;;4981124;28;20395;-80
2023/10/03 02:03:16;;;;;;;22.70;10.63;;;19.80;94.70;;;;;;4979506;28;20046;-79
2023/10/03 02:05:42;;;;;;;27.48;12.13;;;19.80;94.60;;;;;;4968119;28;20570;-80
2023/10/03 02:08:15;;;;;;;23.63;11.25;;;19.80;94.70;;;;;;4983521;28;20151;-79
2023/10/03 02:10:44;;;;;;;21.88;11.18;;;19.80;94.60;;;;;;4952953;28;20767;-79
2023/10/03 02:13:14;;;;;;;22.15;10.10;;;19.80;94.60;;;;;;4948099;28;20030;-80
2023/10/03 02:15:40;;;;;;;24.63;10.85;;;19.90;94.60;;;;;;4951790;28;20033;-80
2023/10/03 02:18:08;;;;;;;25.50;11.70;;;19.90;94.80;;;;;;4982979;28;20113;-80
2023/10/03 02:20:46;;;;;;;21.90;10.93;;;19.90;94.50;;;;;;4970208;28;20088;-80
2023/10/03 02:23:17;;;;;;;23.85;11.68;;;19.80;94.70;;;;;;4965264;28;20050;-80
2023/10/03 02:25:43;;;;;;;22.23;10.85;;;19.90;94.60;;;;;;4950297;28;20087;-79
2023/10/03 02:28:08;;;;;;;21.58;10.15;;;19.80;94.50;;;;;;4969644;28;20022;-80
2023/10/03 02:30:34;;;;;;;19.90;9.73;;;19.90;94.50;;;;;;4953599;28;20585;-79
2023/10/03 02:33:16;;;;;;;21.67;10.30;;;19.90;94.50;;;;;;4985991;28;20057;-80
2023/10/03 02:35:43;;;;;;;24.63;11.57;;;19.90;94.50;;;;;;4972942;28;20438;-80
2023/10/03 02:38:10;;;;;;;23.50;10.55;;;19.90;94.60;;;;;;4981974;28;20030;-79
2023/10/03 02:40:36;;;;;;;24.75;10.80;;;19.80;94.50;;;;;;4971424;28;20043;-79
2023/10/03 02:43:02;;;;;;;22.80;10.50;;;19.80;94.60;;;;;;4972980;28;20039;-80
2023/10/03 02:45:28;;;;;;;27.67;11.70;;;19.80;94.50;;;;;;4987912;28;21498;-80
2023/10/03 02:47:58;;;;;;;26.05;12.30;;;19.80;94.60;;;;;;4987687;28;20121;-80
2023/10/03 02:50:27;;;;;;;20.75;10.63;;;19.80;94.60;;;;;;4985320;28;20045;-80
2023/10/03 02:52:53;;;;;;;22.63;11.02;;;19.80;94.60;;;;;;4987010;28;20040;-80
2023/10/03 02:55:18;;;;;;;25.33;11.88;;;19.80;94.50;;;;;;4986714;28;20049;-80
2023/10/03 02:57:44;;;;;;;24.33;11.18;;;19.80;94.60;;;;;;4985717;28;20030;-80
2023/10/03 03:00:14;;;;;;;22.92;10.13;;;19.80;94.50;;;;;;4953078;28;20038;-80
2023/10/03 03:02:46;;;;;;;26.42;10.07;;;19.90;94.40;;;;;;4972092;28;20091;-79
2023/10/03 03:05:15;;;;;;;23.70;10.63;;;19.90;94.40;;;;;;4971829;28;20513;-79
2023/10/03 03:07:45;;;;;;;23.13;10.00;;;20.00;94.30;;;;;;4953278;28;20497;-80
2023/10/03 03:10:18;;;;;;;21.42;9.52;;;20.00;94.30;;;;;;4973186;28;20029;-80
2023/10/03 03:12:44;;;;;;;24.10;10.25;;;20.00;94.50;;;;;;4956645;28;20438;-80
2023/10/03 03:15:23;;;;;;;21.58;10.00;;;19.90;94.20;;;;;;4970844;28;20034;-79
2023/10/03 03:17:52;;;;;;;23.88;10.23;;;19.90;94.20;;;;;;4973537;28;20054;-80
2023/10/03 03:20:18;;;;;;;24.38;10.98;;;20.00;94.20;;;;;;4990818;28;20038;-79
2023/10/03 03:22:52;;;;;;;26.15;11.27;;;20.00;94.20;;;;;;4970956;28;20538;-80
2023/10/03 03:28:13;;;;;;;19.70;8.88;;;20.00;94.20;;;;;;4977958;28;20558;-80
2023/10/03 03:30:45;;;;;;;19.40;9.23;;;20.10;94.10;;;;;;4970239;28;20038;-81
2023/10/03 03:33:19;;;;;;;21.98;9.38;;;20.00;94.10;;;;;;4973305;28;20030;-79
2023/10/03 03:35:48;;;;;;;20.45;9.55;;;20.10;94.00;;;;;;4951988;28;20044;-79
2023/10/03 03:38:18;;;;;;;22.50;9.32;;;20.10;94.10;;;;;;4973838;28;20038;-80
2023/10/03 03:40:49;;;;;;;21.30;10.15;;;20.10;94.00;;;;;;4995276;28;20042;-80
2023/10/03 03:43:16;;;;;;;21.80;9.85;;;20.10;94.00;;;;;;4973740;28;20417;-79
2023/10/03 03:45:45;;;;;;;20.83;9.35;;;20.10;94.00;;;;;;4990893;28;20073;-80
2023/10/03 03:48:13;;;;;;;21.88;9.45;;;20.10;94.00;;;;;;4973997;28;20085;-79
2023/10/03 03:50:39;;;;;;;20.77;8.55;;;20.20;94.00;;;;;;4972669;28;20038;-79
2023/10/03 03:53:06;;;;;;;15.18;6.85;;;20.30;93.90;;;;;;4988125;28;20110;-79
2023/10/03 03:55:36;;;;;;;20.73;8.88;;;20.30;93.80;;;;;;4976485;28;20117;-78
2023/10/03 03:58:05;;;;;;;21.58;9.75;;;20.20;93.90;;;;;;4972456;28;20435;-78
2023/10/03 04:00:32;;;;;;;19.25;8.75;;;20.30;93.80;;;;;;4973639;28;20137;-79
2023/10/03 04:02:59;;;;;;;21.05;9.27;;;20.20;93.90;;;;;;4985527;28;20073;-79
2023/10/03 04:05:25;;;;;;;14.98;8.18;;;20.30;93.90;;;;;;4972568;28;20400;-79
2023/10/03 04:07:51;;;;;;;18.90;8.65;;;20.30;93.80;;;;;;4972437;28;20034;-79
2023/10/03 04:10:17;;;;;;;19.67;8.88;;;20.40;93.80;;;;;;4955290;28;20034;-79
2023/10/03 04:12:42;;;;;;;19.63;7.70;;;20.40;93.70;;;;;;4986723;28;20495;-78
2023/10/03 04:15:15;;;;;;;19.65;7.47;;;20.50;93.80;;;;;;4973118;28;20707;-79
2023/10/03 04:17:41;;;;;;;17.00;6.85;;;20.40;93.80;;;;;;4973610;28;20035;-79
2023/10/03 04:22:53;;;;;;;19.60;6.65;;;20.50;93.70;;;;;;4986201;28;20506;-80
2023/10/03 04:25:20;;;;;;;15.98;6.03;;;20.60;93.60;;;;;;4988339;28;21160;-79
2023/10/03 04:27:47;;;;;;;16.77;6.13;;;20.60;93.60;;;;;;4945660;28;20037;-78
2023/10/03 04:30:13;;;;;;;21.40;9.35;;;20.70;93.60;;;;;;4986927;28;20038;-79
2023/10/03 04:32:41;;;;;;;18.38;8.05;;;20.60;93.70;;;;;;4985301;28;20114;-78
2023/10/03 04:35:13;;;;;;;19.45;8.55;;;20.70;93.70;;;;;;4969365;28;20154;-79
2023/10/03 04:37:42;;;;;;;19.40;8.30;;;20.70;93.90;;;;;;4987593;28;20561;-79
2023/10/03 04:40:22;;;;;;;22.23;8.85;;;20.70;93.70;;;;;;4969086;28;20438;-79
2023/10/03 04:42:53;;;;;;;13.45;5.65;;;20.70;93.70;;;;;;4972692;28;20491;-78
2023/10/03 04:45:19;;;;;;;16.83;7.35;;;20.80;93.70;;;;;;4988620;28;20141;-79
2023/10/03 04:47:48;;;;;;;19.92;7.88;;;20.70;93.70;;;;;;4969591;28;20095;-79
2023/10/03 04:50:18;;;;;;;18.98;6.65;;;20.60;93.80;;;;;;4953956;28;20067;-79
2023/10/03 04:52:48;;;;;;;21.25;8.35;;;20.60;93.80;;;;;;4970299;28;20669;-79
2023/10/03 04:55:17;;;;;;;14.52;7.05;;;20.70;93.90;;;;;;4986870;28;20038;-79
2023/10/03 04:57:44;;;;;;;16.92;7.00;;;20.60;93.90;;;;;;4969805;28;20046;-79
2023/10/03 05:00:11;;;;;;;16.48;5.60;;;20.60;94.00;;;;;;4964937;28;20034;-79
2023/10/03 05:02:37;;;;;;;19.98;8.07;;;20.50;94.10;;;;;;4969082;28;20133;-79
2023/10/03 05:05:03;;;;;;;14.90;5.88;;;20.60;94.20;;;;;;4967968;28;20109;-79
2023/10/03 05:07:28;;;;;;;15.40;7.00;;;20.50;94.30;;;;;;4969734;28;20039;-79
2023/10/03 05:09:54;;;;;;;11.88;5.45;;;20.40;94.30;;;;;;4952340;28;20499;-78
2023/10/03 05:12:20;;;;;;;15.65;7.47;;;20.50;94.40;;;;;;4954393;28;20057;-79
2023/10/03 05:14:48;;;;;;;17.58;7.18;;;20.50;94.30;;;;;;4986137;28;20045;-78
2023/10/03 05:17:14;;;;;;;18.40;9.35;;;20.60;94.40;;;;;;4970155;28;20038;-78
2023/10/03 05:19:41;;;;;;;16.60;7.55;;;20.50;94.50;;;;;;4981253;28;20039;-79
2023/10/03 05:22:08;;;;;;;9.73;4.88;;;20.50;94.50;;;;;;4968194;28;20046;-79
2023/10/03 05:24:35;;;;;;;20.13;9.07;;;20.50;94.60;;;;;;4967152;28;20084;-79
2023/10/03 05:27:00;;;;;;;17.10;7.88;;;20.50;94.80;;;;;;4948693;28;20026;-79
2023/10/03 05:29:28;;;;;;;8.35;4.45;;;20.50;94.70;;;;;;4956845;28;20030;-79
2023/10/03 05:31:54;;;;;;;19.17;8.35;;;20.50;94.80;;;;;;4971421;28;20030;-79
2023/10/03 05:34:21;;;;;;;20.42;8.13;;;20.50;94.80;;;;;;4965558;28;20188;-78
2023/10/03 05:36:48;;;;;;;18.20;7.68;;;20.50;94.80;;;;;;4984330;28;20089;-79
2023/10/03 05:39:15;;;;;;;17.58;8.00;;;20.50;94.90;;;;;;4966127;28;20126;-78
2023/10/03 05:41:41;;;;;;;18.98;8.82;;;20.50;94.90;;;;;;4949539;28;20402;-79
2023/10/03 05:44:11;;;;;;;19.25;7.70;;;20.50;94.90;;;;;;4954489;28;20031;-79
2023/10/03 05:46:40;;;;;;;17.45;8.30;;;20.50;94.90;;;;;;4978812;28;20042;-79
2023/10/03 05:49:06;;;;;;;14.63;6.45;;;20.50;95.00;;;;;;4951822;28;20578;-79
2023/10/03 05:51:33;;;;;;;16.70;7.88;;;20.40;95.10;;;;;;4968967;28;20034;-78
2023/10/03 05:53:59;;;;;;;16.30;8.27;;;20.40;95.30;;;;;;4985748;28;20109;-79
2023/10/03 05:56:25;;;;;;;18.80;7.63;;;20.40;95.40;;;;;;4951945;28;20414;-78
2023/10/03 05:58:50;;;;;;;16.35;7.68;;;20.40;95.50;;;;;;4984509;28;20033;-78
2023/10/03 06:01:16;;;;;;;16.40;6.55;;;20.30;95.50;;;;;;4984443;28;20038;-78
2023/10/03 06:03:41;;;;;;;13.75;6.57;;;20.40;95.50;;;;;;4967702;28;20058;-79
2023/10/03 06:06:07;;;;;;;9.70;5.07;;;20.40;95.70;;;;;;4950600;28;20092;-78
2023/10/03 06:08:33;;;;;;;12.95;4.97;;;20.30;95.70;;;;;;4970183;28;20041;-79
2023/10/03 06:11:00;;;;;;;16.77;7.38;;;20.30;95.80;;;;;;4966734;28;20032;-78
2023/10/03 06:13:26;;;;;;;14.82;7.35;;;20.30;95.80;;;;;;4970130;28;20426;-78
2023/10/03 06:15:52;;;;;;;17.10;6.90;;;20.30;96.00;;;;;;4967297;28;20031;-79
2023/10/03 06:18:18;;;;;;;14.38;6.43;;;20.30;96.10;;;;;;4968978;28;20029;-78
2023/10/03 06:20:43;;;;;;;15.55;6.97;;;20.30;96.00;;;;;;4968333;28;20538;-78
2023/10/03 06:23:09;;;;;;;15.00;6.57;;;20.30;96.40;;;;;;4967222;28;20035;-78
2023/10/03 06:25:35;;;;;;;13.10;6.40;;;20.20;96.30;;;;;;4983900;28;20106;-79
2023/10/03 06:28:02;;;;;;;16.88;8.07;;;20.20;96.20;;;;;;4972321;28;20088;-79
2023/10/03 06:30:28;;;;;;;16.10;7.07;;;20.30;96.60;;;;;;4971560;28;20032;-79
2023/10/03 06:32:54;;;;;;;11.48;5.93;;;20.30;96.40;;;;;;4986624;28;21079;-79
2023/10/03 06:35:20;;;;;;;15.13;6.78;;;20.20;96.50;;;;;;4969325;28;20113;-77
2023/10/03 06:37:47;;;;;;;16.40;6.93;;;20.40;96.70;;;;;;4967173;28;20061;-78
2023/10/03 06:40:13;;;;;;;10.43;4.32;;;20.30;96.60;;;;;;4969756;28;20066;-78
2023/10/03 06:42:40;;;;;;;13.35;7.10;;;20.40;96.70;;;;;;4952969;28;20034;-78
2023/10/03 06:45:09;;;;;;;18.38;6.90;;;20.30;96.80;;;;;;4953012;28;20038;-78
2023/10/03 06:47:35;;;;;;;13.27;5.50;;;20.40;96.80;;;;;;4984340;28;20141;-78
2023/10/03 06:50:01;;;;;;;15.07;6.85;;;20.30;96.80;;;;;;4983075;28;20534;-78
2023/10/03 06:52:28;;;;;;;14.90;5.57;;;20.30;97.00;;;;;;4969460;28;20730;-79
2023/10/03 06:54:57;;;;;;;20.20;6.03;;;20.30;96.90;;;;;;4958171;28;20081;-78
2023/10/03 06:57:26;;;;;;;13.63;4.47;;;20.40;97.00;;;;;;4954903;28;20037;-76
2023/10/03 06:59:59;;;;;;;12.70;6.75;;;20.40;97.00;;;;;;4956122;28;20042;-77
2023/10/03 07:02:29;;;;;;;8.32;3.85;;;20.40;97.00;;;;;;4968690;28;20073;-77
2023/10/03 07:04:55;;;;;;;7.60;4.65;;;20.40;97.00;;;;;;4942216;28;20042;-77
2023/10/03 07:07:21;;;;;;;14.05;5.47;;;20.50;97.00;;;;;;4954015;28;20085;-77
2023/10/03 07:09:46;;;;;;;14.93;5.47;;;20.50;97.00;;;;;;4985450;28;20037;-79
2023/10/03 07:12:12;;;;;;;12.60;5.03;;;20.40;97.10;;;;;;4952217;28;20054;-79
2023/10/03 07:14:38;;;;;;;9.98;5.45;;;20.40;97.10;;;;;;4951396;28;20050;-79
2023/10/03 07:17:03;;;;;;;17.67;5.82;;;20.40;97.10;;;;;;4968775;28;20432;-80
2023/10/03 07:19:30;;;;;;;13.32;6.07;;;20.40;97.30;;;;;;4968420;28;21749;-79
2023/10/03 07:21:56;;;;;;;11.25;4.97;;;20.40;97.10;;;;;;4972559;28;20077;-78
2023/10/03 07:24:24;;;;;;;9.02;5.15;;;20.40;97.00;;;;;;4967402;28;20092;-78
2023/10/03 07:26:50;;;;;;;6.93;4.75;;;20.40;97.10;;;;;;4965802;28;20109;-77
2023/10/03 07:29:17;;;;;;;7.43;4.22;;;20.40;97.00;;;;;;4955283;28;20169;-77
2023/10/03 07:31:43;;;;;;;7.07;2.88;;;20.40;97.10;;;;;;4970803;28;20049;-78
2023/10/03 07:34:08;;;;;;;9.27;4.60;;;20.40;97.10;;;;;;4955191;28;20057;-78
2023/10/03 07:36:34;;;;;;;11.32;4.50;;;20.40;97.10;;;;;;4989460;28;20592;-78
2023/10/03 07:39:00;;;;;;;9.98;4.03;;;20.40;97.00;;;;;;4954839;28;20037;-78
2023/10/03 07:41:27;;;;;;;9.55;4.63;;;20.40;97.00;;;;;;4957787;28;20109;-78
2023/10/03 07:43:52;;;;;;;9.18;6.22;;;20.40;97.00;;;;;;4970636;28;20399;-78
2023/10/03 07:46:21;;;;;;;6.10;3.55;;;20.40;96.90;;;;;;4954033;28;20067;-78
2023/10/03 07:48:48;;;;;;;11.30;6.38;;;20.40;96.90;;;;;;4969854;28;20042;-78
2023/10/03 07:51:17;;;;;;;6.15;3.20;;;20.50;96.90;;;;;;4954546;28;20038;-78
2023/10/03 07:53:42;;;;;;;6.05;3.53;;;20.50;96.80;;;;;;4947795;28;20050;-78
2023/10/03 07:56:54;;;;;;;7.93;3.80;;;20.50;96.80;;;;;;4971938;28;20676;-78
2023/10/03 07:59:12;;;;;;;10.60;4.20;;;20.50;96.70;;;;;;4987823;28;20394;-78
2023/10/03 08:01:38;;;;;;;6.43;2.30;;;20.50;96.70;;;;;;4972660;28;20117;-78
2023/10/03 08:04:08;;;;;;;8.88;4.25;;;20.50;96.70;;;;;;4971722;28;20091;-78
2023/10/03 08:06:36;;;;;;;8.35;4.03;;;20.50;96.70;;;;;;4991285;28;20061;-78
2023/10/03 08:09:03;;;;;;;5.22;2.97;;;20.50;96.70;;;;;;4977754;28;20037;-78
2023/10/03 08:11:32;;;;;;;6.95;3.75;;;20.50;96.70;;;;;;4968113;28;20514;-78
2023/10/03 08:14:17;;;;;;;9.75;4.68;;;20.50;96.70;;;;;;4969638;28;20039;-80
2023/10/03 08:16:46;;;;;;;10.07;3.83;;;20.50;96.80;;;;;;4967760;28;20044;-79
2023/10/03 08:19:25;;;;;;;9.25;4.18;;;20.50;96.80;;;;;;4975420;28;20080;-79
2023/10/03 08:21:52;;;;;;;6.68;3.85;;;20.50;96.80;;;;;;4958936;28;20049;-78
2023/10/03 08:24:19;;;;;;;3.80;2.03;;;20.50;96.90;;;;;;4971291;28;20050;-79
2023/10/03 08:26:46;;;;;;;5.63;2.92;;;20.50;96.90;;;;;;4966978;28;20037;-78
2023/10/03 08:29:21;;;;;;;7.43;3.22;;;20.50;96.90;;;;;;4986951;28;20038;-78
2023/10/03 08:31:58;;;;;;;7.20;3.65;;;20.50;96.80;;;;;;4972365;28;20581;-79
2023/10/03 08:34:28;;;;;;;7.82;3.40;;;20.60;96.70;;;;;;4967415;28;20121;-78
2023/10/03 08:36:54;;;;;;;5.85;3.13;;;20.60;96.80;;;;;;4970797;28;20125;-79
2023/10/03 08:39:23;;;;;;;6.88;3.55;;;20.70;96.70;;;;;;4953629;28;20043;-80
2023/10/03 08:42:13;;;;;;;4.85;2.88;;;20.70;96.60;;;;;;4952966;28;20503;-79
2023/10/03 08:44:49;;;;;;;7.82;2.88;;;20.70;96.60;;;;;;4989432;28;20038;-79
2023/10/03 08:47:15;;;;;;;7.45;3.88;;;20.70;96.80;;;;;;4979748;28;20038;-79
2023/10/03 08:49:41;;;;;;;7.70;3.00;;;20.70;96.90;;;;;;4953056;28;20038;-78
2023/10/03 08:52:09;;;;;;;3.15;2.45;;;20.70;96.90;;;;;;4970657;28;20092;-79
2023/10/03 08:54:39;;;;;;;10.32;3.13;;;20.80;96.90;;;;;;4987270;28;20135;-80
2023/10/03 08:57:04;;;;;;;7.03;2.15;;;20.80;96.90;;;;;;4953884;28;20066;-78
2023/10/03 08:59:31;;;;;;;7.47;4.65;;;20.70;96.90;;;;;;4967773;28;20066;-79
2023/10/03 09:01:58;;;;;;;10.52;3.00;;;20.70;97.00;;;;;;4952255;28;20490;-79
2023/10/03 09:04:24;;;;;;;6.47;3.47;;;20.70;96.90;;;;;;4951320;28;20034;-80
2023/10/03 09:06:50;;;;;;;3.28;2.33;;;20.70;96.80;;;;;;4986836;28;20493;-79
2023/10/03 09:09:16;;;;;;;5.50;2.65;;;20.70;96.90;;;;;;4955179;28;20038;-79
2023/10/03 09:11:50;;;;;;;9.30;4.47;;;20.70;96.80;;;;;;4971360;28;20427;-80
2023/10/03 09:14:20;;;;;;;5.80;2.85;;;20.60;96.90;;;;;;4968057;28;20580;-79
2023/10/03 09:16:50;;;;;;;4.28;1.85;;;20.60;96.90;;;;;;4953794;28;20030;-79
2023/10/03 09:19:23;;;;;;;5.18;3.08;;;20.60;96.90;;;;;;4970544;28;20065;-79
2023/10/03 09:21:55;;;;;;;3.97;2.92;;;20.60;96.90;;;;;;4970255;28;20049;-79
2023/10/03 09:24:21;;;;;;;3.03;1.95;;;20.70;97.00;;;;;;4968472;28;20375;-78
2023/10/03 09:27:07;;;;;;;6.75;4.05;;;20.60;96.90;;;;;;4953704;28;20136;-79
2023/10/03 09:29:33;;;;;;;3.38;2.42;;;20.60;97.10;;;;;;4971639;28;20553;-79
2023/10/03 09:32:12;;;;;;;5.05;3.72;;;20.60;97.20;;;;;;4985582;28;20027;-79
2023/10/03 09:34:41;;;;;;;5.57;3.05;;;20.60;97.10;;;;;;4970818;28;20079;-79
2023/10/03 09:37:07;;;;;;;8.43;4.78;;;20.60;97.10;;;;;;4945816;28;20031;-79
2023/10/03 09:39:39;;;;;;;5.65;3.40;;;20.70;97.40;;;;;;4964616;28;20474;-79
2023/10/03 09:42:08;;;;;;;8.32;3.10;;;20.80;97.10;;;;;;4965502;28;20032;-79
2023/10/03 09:44:33;;;;;;;6.35;4.10;;;20.90;97.20;;;;;;4951014;28;20252;-79
2023/10/03 09:47:06;;;;;;;6.90;4.30;;;21.00;97.10;;;;;;4968297;28;20030;-79
2023/10/03 09:49:36;;;;;;;3.97;2.80;;;21.00;96.90;;;;;;4982527;28;20085;-80
2023/10/03 09:52:09;;;;;;;5.55;2.88;;;21.10;96.80;;;;;;4969303;28;20083;-79
2023/10/03 09:54:39;;;;;;;8.10;3.63;;;21.20;96.70;;;;;;4951664;28;20038;-80
2023/10/03 09:57:16;;;;;;;6.10;3.03;;;21.20;96.70;;;;;;4961815;28;20034;-79
2023/10/03 09:59:49;;;;;;;10.10;3.58;;;21.30;96.80;;;;;;4968602;28;20034;-80
2023/10/03 10:02:33;;;;;;;5.22;3.22;;;21.30;96.60;;;;;;4952147;28;20078;-80
2023/10/03 10:05:23;;;;;;;6.18;3.13;;;21.30;96.60;;;;;;4969949;28;20522;-79
2023/10/03 10:08:08;;;;;;;5.82;3.25;;;21.30;96.50;;;;;;4952793;28;20337;-79
2023/10/03 10:10:35;;;;;;;5.78;2.95;;;21.30;96.80;;;;;;4953743;28;20034;-80
2023/10/03 10:13:13;;;;;;;6.22;3.65;;;21.30;96.60;;;;;;4982092;28;20835;-79
2023/10/03 10:16:07;;;;;;;8.77;2.72;;;21.20;96.70;;;;;;4966814;28;20042;-79
2023/10/03 10:18:45;;;;;;;10.98;3.75;;;21.10;96.60;;;;;;4985204;28;20403;-78
2023/10/03 10:21:22;;;;;;;10.23;4.35;;;21.10;97.00;;;;;;4975207;28;20487;-79
2023/10/03 10:24:11;;;;;;;19.55;4.32;;;21.10;97.60;;;;;;4978797;28;20589;-79
2023/10/03 10:26:38;;;;;;;5.03;2.85;;;20.60;98.80;;;;;;4984025;28;20033;-80
2023/10/03 10:29:08;;;;;;;6.70;3.83;;;20.10;99.00;;;;;;4969824;28;20042;-81
2023/10/03 10:31:39;;;;;;;9.40;3.35;;;20.00;99.40;;;;;;4948034;28;20042;-81
2023/10/03 10:34:18;;;;;;;7.95;4.53;;;19.80;99.90;;;;;;4953870;28;20546;-81
2023/10/03 10:37:01;;;;;;;7.80;3.17;;;19.70;99.90;;;;;;4984476;28;20039;-78
2023/10/03 10:40:09;;;;;;;9.93;4.53;;;19.50;99.90;;;;;;4966486;28;20422;-80
2023/10/03 10:43:01;;;;;;;6.82;5.82;;;19.20;99.90;;;;;;4983569;28;20085;-78
2023/10/03 10:45:37;;;;;;;9.75;5.28;;;19.00;99.90;;;;;;4969961;28;20488;-80
2023/10/03 10:48:04;;;;;;;8.68;6.05;;;19.10;99.90;;;;;;4954201;28;20502;-79
2023/10/03 10:50:59;;;;;;;8.00;4.50;;;19.00;99.90;;;;;;4969257;28;20050;-80
2023/10/03 10:53:43;;;;;;;10.23;6.03;;;18.90;99.90;;;;;;4983271;28;20030;-80
2023/10/03 10:56:09;;;;;;;9.60;6.20;;;18.90;99.90;;;;;;4972273;28;20061;-80
2023/10/03 10:59:04;;;;;;;8.02;5.82;;;19.00;99.90;;;;;;4971786;28;20557;-80
2023/10/03 11:01:30;;;;;;;11.07;5.13;;;18.80;99.90;;;;;;4986091;28;20528;-81
2023/10/03 11:03:56;;;;;;;11.23;6.00;;;18.80;99.90;;;;;;4972151;28;20037;-81
2023/10/03 11:06:23;;;;;;;11.73;5.55;;;18.70;99.90;;;;;;4977973;28;20553;-81
2023/10/03 11:08:49;;;;;;;9.95;5.65;;;18.70;99.90;;;;;;4978232;28;20482;-81
2023/10/03 11:11:15;;;;;;;11.15;6.00;;;18.70;99.90;;;;;;4956829;28;20062;-81
2023/10/03 11:13:46;;;;;;;6.20;4.85;;;18.60;99.90;;;;;;4989884;28;20529;-81
2023/10/03 11:16:13;;;;;;;11.82;7.10;;;18.70;99.90;;;;;;4958515;28;20038;-80
2023/10/03 11:18:39;;;;;;;9.98;5.85;;;18.60;99.90;;;;;;4955944;28;20045;-81
2023/10/03 11:21:05;;;;;;;8.45;5.43;;;18.60;99.90;;;;;;4958925;28;21225;-81
2023/10/03 11:23:30;;;;;;;9.82;5.47;;;18.60;99.90;;;;;;4974879;28;20040;-81
2023/10/03 11:25:59;;;;;;;9.98;5.05;;;18.50;99.90;;;;;;4990085;28;20513;-81
2023/10/03 11:28:28;;;;;;;6.10;4.88;;;18.60;99.90;;;;;;4992569;28;20509;-81
2023/10/03 11:31:03;;;;;;;8.95;5.07;;;18.70;99.90;;;;;;4961177;28;20429;-80
2023/10/03 11:33:50;;;;;;;5.30;3.73;;;18.90;99.90;;;;;;4975436;28;20506;-80
2023/10/03 11:36:15;;;;;;;4.43;2.35;;;18.80;99.90;;;;;;4972861;28;20266;-81
2023/10/03 11:38:45;;;;;;;7.45;2.15;;;19.00;99.90;;;;;;4961260;28;20084;-80
2023/10/03 11:41:11;;;;;;;5.05;2.80;;;19.10;99.90;;;;;;4974413;28;20494;-81
2023/10/03 11:43:46;;;;;;;5.18;1.50;;;19.20;99.90;;;;;;4973160;28;21677;-81
2023/10/03 11:46:12;;;;;;;2.33;1.52;;;19.20;99.90;;;;;;4976562;28;20038;-81
2023/10/03 11:48:37;;;;;;;3.13;1.40;;;19.40;99.90;;;;;;4979363;28;20056;-81
2023/10/03 11:51:04;;;;;;;4.85;1.75;;;19.30;99.90;;;;;;4975009;28;20483;-80
2023/10/03 11:53:31;;;;;;;7.60;1.88;;;19.30;99.90;;;;;;4984053;28;20129;-80
2023/10/03 11:55:56;;;;;;;4.70;1.80;;;19.40;99.90;;;;;;4975811;28;20042;-81
2023/10/03 11:58:22;;;;;;;2.35;1.50;;;19.50;99.90;;;;;;4977367;28;20035;-81
2023/10/03 12:00:49;;;;;;;8.02;1.65;;;19.40;99.90;;;;;;4956793;28;20044;-80
2023/10/03 12:03:15;;;;;;;4.13;1.98;;;19.40;99.90;;;;;;4987867;28;20518;-80
2023/10/03 12:05:42;;;;;;;6.05;2.03;;;19.50;99.90;;;;;;4968353;28;20088;-81
2023/10/03 12:08:08;;;;;;;4.25;2.33;;;19.50;99.90;;;;;;4954652;28;20794;-80
2023/10/03 12:10:36;;;;;;;3.22;1.48;;;19.40;99.90;;;;;;4955382;28;20544;-80
2023/10/03 12:13:09;;;;;;;3.44;1.56;;;19.40;99.90;;;;;;4484694;28;10000441;-80
2023/10/03 12:15:36;;;;;;;2.97;1.20;;;19.40;99.90;;;;;;4968748;28;20274;-81
2023/10/03 12:18:07;;;;;;;3.40;1.25;;;19.30;99.90;;;;;;4971206;28;20539;-80
2023/10/03 12:20:34;;;;;;;2.63;1.45;;;19.30;99.90;;;;;;4971562;28;20073;-81
2023/10/03 12:23:01;;;;;;;2.20;1.08;;;19.20;99.90;;;;;;4955698;28;20046;-81
2023/10/03 12:25:29;;;;;;;8.13;1.27;;;19.10;99.90;;;;;;4973001;28;20386;-80
2023/10/03 12:27:55;;;;;;;4.53;1.58;;;18.90;99.90;;;;;;4984641;28;20038;-80
2023/10/03 12:30:20;;;;;;;4.75;1.75;;;18.90;99.90;;;;;;4971193;28;20635;-81
2023/10/03 12:32:47;;;;;;;3.25;1.25;;;18.60;99.90;;;;;;4969510;28;20034;-80
2023/10/03 12:35:13;;;;;;;4.65;1.58;;;18.60;99.90;;;;;;4984327;28;20046;-80
2023/10/03 12:37:39;;;;;;;2.38;0.95;;;18.50;99.90;;;;;;4970952;28;20663;-80
2023/10/03 12:40:13;;;;;;;3.97;0.93;;;18.40;99.90;;;;;;4969614;28;20096;-80
2023/10/03 12:42:48;;;;;;;4.72;0.88;;;18.30;99.90;;;;;;4970751;28;20177;-80
2023/10/03 12:45:16;;;;;;;3.10;0.93;;;18.20;99.90;;;;;;4957873;28;20030;-80
2023/10/03 12:47:48;;;;;;;1.55;0.90;;;18.10;99.90;;;;;;4970999;28;20435;-80
2023/10/03 12:50:24;;;;;;;1.95;0.90;;;18.20;99.90;;;;;;4975397;28;20802;-80
2023/10/03 12:53:23;;;;;;;2.65;1.10;;;18.30;99.90;;;;;;4930109;28;20031;-80